sensor_id;sensor_type;location;lat;lon;timestamp;P1;durP1;ratioP1;P2;durP2;ratioP2
48534;SDS011;34323;52.022;5.686;2023-03-01T00:01:58;7.35;;;4.38;;
48534;SDS011;34323;52.022;5.686;2023-03-01T00:04:23;13.30;;;4.32;;
48534;SDS011;34323;52.022;5.686;2023-03-01T00:06:49;5.85;;;3.42;;
48534;SDS011;34323;52.022;5.686;2023-03-01T00:09:15;5.82;;;3.58;;
48534;SDS011;34323;52.022;5.686;2023-03-01T00:11:42;6.97;;;4.22;;
48534;SDS011;34323;52.022;5.686;2023-03-01T00:14:08;8.60;;;3.95;;
48534;SDS011;34323;52.022;5.686;2023-03-01T00:16:34;7.45;;;4.65;;
48534;SDS011;34323;52.022;5.686;2023-03-01T00:19:04;5.75;;;3.75;;
48534;SDS011;34323;52.022;5.686;2023-03-01T00:21:31;8.35;;;3.78;;
48534;SDS011;34323;52.022;5.686;2023-03-01T00:23:57;7.13;;;3.90;;
48534;SDS011;34323;52.022;5.686;2023-03-01T00:26:23;10.32;;;4.57;;
48534;SDS011;34323;52.022;5.686;2023-03-01T00:28:50;7.20;;;4.18;;
48534;SDS011;34323;52.022;5.686;2023-03-01T00:31:18;9.80;;;4.43;;
48534;SDS011;34323;52.022;5.686;2023-03-01T00:33:45;7.53;;;4.05;;
48534;SDS011;34323;52.022;5.686;2023-03-01T00:36:12;9.18;;;4.70;;
48534;SDS011;34323;52.022;5.686;2023-03-01T00:38:40;7.10;;;4.20;;
48534;SDS011;34323;52.022;5.686;2023-03-01T00:41:08;6.68;;;4.28;;
48534;SDS011;34323;52.022;5.686;2023-03-01T00:43:36;13.65;;;4.53;;
48534;SDS011;34323;52.022;5.686;2023-03-01T00:46:02;7.97;;;4.32;;
48534;SDS011;34323;52.022;5.686;2023-03-01T00:48:35;5.90;;;3.72;;
48534;SDS011;34323;52.022;5.686;2023-03-01T00:51:21;6.43;;;4.50;;
48534;SDS011;34323;52.022;5.686;2023-03-01T00:53:52;10.50;;;4.50;;
48534;SDS011;34323;52.022;5.686;2023-03-01T00:56:19;8.57;;;4.40;;
48534;SDS011;34323;52.022;5.686;2023-03-01T00:58:45;7.30;;;3.97;;
48534;SDS011;34323;52.022;5.686;2023-03-01T01:01:12;7.82;;;4.20;;
48534;SDS011;34323;52.022;5.686;2023-03-01T01:03:42;7.65;;;4.38;;
48534;SDS011;34323;52.022;5.686;2023-03-01T01:06:20;10.32;;;4.07;;
48534;SDS011;34323;52.022;5.686;2023-03-01T01:08:48;7.60;;;4.03;;
48534;SDS011;34323;52.022;5.686;2023-03-01T01:11:14;8.82;;;4.28;;
48534;SDS011;34323;52.022;5.686;2023-03-01T01:13:41;9.50;;;4.53;;
48534;SDS011;34323;52.022;5.686;2023-03-01T01:16:07;8.30;;;4.25;;
48534;SDS011;34323;52.022;5.686;2023-03-01T01:18:33;6.85;;;4.13;;
48534;SDS011;34323;52.022;5.686;2023-03-01T01:21:03;8.48;;;4.18;;
48534;SDS011;34323;52.022;5.686;2023-03-01T01:23:30;7.45;;;4.32;;
48534;SDS011;34323;52.022;5.686;2023-03-01T01:25:56;10.27;;;4.43;;
48534;SDS011;34323;52.022;5.686;2023-03-01T01:28:21;7.20;;;4.60;;
48534;SDS011;34323;52.022;5.686;2023-03-01T01:30:47;11.18;;;5.03;;
48534;SDS011;34323;52.022;5.686;2023-03-01T01:33:12;7.55;;;4.50;;
48534;SDS011;34323;52.022;5.686;2023-03-01T01:35:38;9.02;;;5.05;;
48534;SDS011;34323;52.022;5.686;2023-03-01T01:38:03;8.13;;;4.57;;
48534;SDS011;34323;52.022;5.686;2023-03-01T01:40:29;7.78;;;4.63;;
48534;SDS011;34323;52.022;5.686;2023-03-01T01:42:55;8.07;;;4.25;;
48534;SDS011;34323;52.022;5.686;2023-03-01T01:45:31;7.97;;;4.65;;
48534;SDS011;34323;52.022;5.686;2023-03-01T01:48:00;7.97;;;4.35;;
48534;SDS011;34323;52.022;5.686;2023-03-01T01:50:34;8.40;;;4.78;;
48534;SDS011;34323;52.022;5.686;2023-03-01T01:53:05;7.60;;;4.05;;
48534;SDS011;34323;52.022;5.686;2023-03-01T01:55:35;8.82;;;5.20;;
48534;SDS011;34323;52.022;5.686;2023-03-01T01:58:04;6.82;;;4.43;;
48534;SDS011;34323;52.022;5.686;2023-03-01T02:00:33;8.30;;;4.65;;
48534;SDS011;34323;52.022;5.686;2023-03-01T02:03:03;9.00;;;4.72;;
48534;SDS011;34323;52.022;5.686;2023-03-01T02:05:34;11.25;;;4.50;;
48534;SDS011;34323;52.022;5.686;2023-03-01T02:08:15;10.35;;;5.82;;
48534;SDS011;34323;52.022;5.686;2023-03-01T02:10:43;9.75;;;4.78;;
48534;SDS011;34323;52.022;5.686;2023-03-01T02:13:10;7.95;;;4.78;;
48534;SDS011;34323;52.022;5.686;2023-03-01T02:15:36;9.15;;;5.03;;
48534;SDS011;34323;52.022;5.686;2023-03-01T02:18:07;9.27;;;4.95;;
48534;SDS011;34323;52.022;5.686;2023-03-01T02:20:54;21.25;;;4.65;;
48534;SDS011;34323;52.022;5.686;2023-03-01T02:23:41;8.65;;;4.60;;
48534;SDS011;34323;52.022;5.686;2023-03-01T02:26:25;9.13;;;4.45;;
48534;SDS011;34323;52.022;5.686;2023-03-01T02:31:33;6.65;;;4.20;;
48534;SDS011;34323;52.022;5.686;2023-03-01T02:34:29;7.63;;;4.47;;
48534;SDS011;34323;52.022;5.686;2023-03-01T02:37:16;8.82;;;4.20;;
48534;SDS011;34323;52.022;5.686;2023-03-01T02:42:58;10.43;;;5.32;;
48534;SDS011;34323;52.022;5.686;2023-03-01T02:45:35;7.30;;;4.40;;
48534;SDS011;34323;52.022;5.686;2023-03-01T02:48:27;7.53;;;4.07;;
48534;SDS011;34323;52.022;5.686;2023-03-01T02:51:05;7.20;;;4.03;;
48534;SDS011;34323;52.022;5.686;2023-03-01T02:53:49;7.93;;;4.03;;
48534;SDS011;34323;52.022;5.686;2023-03-01T03:06:32;8.57;;;4.32;;
48534;SDS011;34323;52.022;5.686;2023-03-01T03:09:22;9.05;;;4.40;;
48534;SDS011;34323;52.022;5.686;2023-03-01T03:12:05;6.10;;;3.72;;
48534;SDS011;34323;52.022;5.686;2023-03-01T03:14:48;5.60;;;3.88;;
48534;SDS011;34323;52.022;5.686;2023-03-01T03:17:51;6.32;;;4.10;;
48534;SDS011;34323;52.022;5.686;2023-03-01T03:20:31;11.48;;;4.07;;
48534;SDS011;34323;52.022;5.686;2023-03-01T03:29:16;9.13;;;3.88;;
48534;SDS011;34323;52.022;5.686;2023-03-01T03:32:25;5.63;;;3.35;;
48534;SDS011;34323;52.022;5.686;2023-03-01T03:35:07;8.00;;;4.30;;
48534;SDS011;34323;52.022;5.686;2023-03-01T03:38:01;6.20;;;3.97;;
48534;SDS011;34323;52.022;5.686;2023-03-01T03:47:26;13.18;;;3.90;;
48534;SDS011;34323;52.022;5.686;2023-03-01T03:53:38;7.85;;;4.35;;
48534;SDS011;34323;52.022;5.686;2023-03-01T03:56:33;8.13;;;4.15;;
48534;SDS011;34323;52.022;5.686;2023-03-01T03:59:11;8.15;;;3.80;;
48534;SDS011;34323;52.022;5.686;2023-03-01T04:02:12;6.50;;;2.75;;
48534;SDS011;34323;52.022;5.686;2023-03-01T04:11:18;10.98;;;4.50;;
48534;SDS011;34323;52.022;5.686;2023-03-01T04:20:08;8.38;;;3.75;;
48534;SDS011;34323;52.022;5.686;2023-03-01T04:25:54;6.10;;;3.90;;
48534;SDS011;34323;52.022;5.686;2023-03-01T04:28:38;7.22;;;4.10;;
48534;SDS011;34323;52.022;5.686;2023-03-01T04:37:41;6.43;;;4.10;;
48534;SDS011;34323;52.022;5.686;2023-03-01T04:40:41;7.88;;;4.68;;
48534;SDS011;34323;52.022;5.686;2023-03-01T04:43:18;6.40;;;3.85;;
48534;SDS011;34323;52.022;5.686;2023-03-01T04:46:14;9.38;;;4.68;;
48534;SDS011;34323;52.022;5.686;2023-03-01T04:49:52;7.47;;;3.80;;
48534;SDS011;34323;52.022;5.686;2023-03-01T04:52:08;11.82;;;4.60;;
48534;SDS011;34323;52.022;5.686;2023-03-01T04:57:50;8.32;;;4.45;;
48534;SDS011;34323;52.022;5.686;2023-03-01T05:03:54;9.52;;;4.03;;
48534;SDS011;34323;52.022;5.686;2023-03-01T05:06:44;8.65;;;4.03;;
48534;SDS011;34323;52.022;5.686;2023-03-01T05:09:42;8.90;;;4.70;;
48534;SDS011;34323;52.022;5.686;2023-03-01T05:12:43;8.13;;;4.47;;
48534;SDS011;34323;52.022;5.686;2023-03-01T05:15:26;7.07;;;4.00;;
48534;SDS011;34323;52.022;5.686;2023-03-01T05:18:11;8.48;;;4.30;;
48534;SDS011;34323;52.022;5.686;2023-03-01T05:24:14;9.90;;;4.50;;
48534;SDS011;34323;52.022;5.686;2023-03-01T05:26:46;10.52;;;4.43;;
48534;SDS011;34323;52.022;5.686;2023-03-01T05:29:30;6.95;;;3.80;;
48534;SDS011;34323;52.022;5.686;2023-03-01T05:35:05;6.55;;;4.40;;
48534;SDS011;34323;52.022;5.686;2023-03-01T05:37:49;9.20;;;4.88;;
48534;SDS011;34323;52.022;5.686;2023-03-01T05:41:01;5.63;;;4.05;;
48534;SDS011;34323;52.022;5.686;2023-03-01T05:46:36;8.57;;;4.85;;
48534;SDS011;34323;52.022;5.686;2023-03-01T05:49:11;12.43;;;4.80;;
48534;SDS011;34323;52.022;5.686;2023-03-01T05:51:58;8.70;;;4.83;;
48534;SDS011;34323;52.022;5.686;2023-03-01T05:58:11;8.27;;;4.47;;
48534;SDS011;34323;52.022;5.686;2023-03-01T06:01:03;8.30;;;4.25;;
48534;SDS011;34323;52.022;5.686;2023-03-01T06:04:15;7.95;;;4.10;;
48534;SDS011;34323;52.022;5.686;2023-03-01T06:06:45;7.57;;;4.78;;
48534;SDS011;34323;52.022;5.686;2023-03-01T06:09:31;6.18;;;4.28;;
48534;SDS011;34323;52.022;5.686;2023-03-01T06:12:23;8.90;;;5.30;;
48534;SDS011;34323;52.022;5.686;2023-03-01T06:15:01;8.73;;;4.80;;
48534;SDS011;34323;52.022;5.686;2023-03-01T06:20:13;9.63;;;4.55;;
48534;SDS011;34323;52.022;5.686;2023-03-01T06:22:48;10.10;;;4.70;;
48534;SDS011;34323;52.022;5.686;2023-03-01T06:25:43;7.97;;;4.68;;
48534;SDS011;34323;52.022;5.686;2023-03-01T06:28:23;8.40;;;4.28;;
48534;SDS011;34323;52.022;5.686;2023-03-01T06:31:18;8.15;;;4.20;;
48534;SDS011;34323;52.022;5.686;2023-03-01T06:37:19;10.95;;;4.95;;
48534;SDS011;34323;52.022;5.686;2023-03-01T06:42:58;9.13;;;5.35;;
48534;SDS011;34323;52.022;5.686;2023-03-01T06:45:29;8.40;;;5.00;;
48534;SDS011;34323;52.022;5.686;2023-03-01T06:51:06;9.88;;;5.50;;
48534;SDS011;34323;52.022;5.686;2023-03-01T06:53:45;9.30;;;4.47;;
48534;SDS011;34323;52.022;5.686;2023-03-01T06:56:44;10.55;;;4.85;;
48534;SDS011;34323;52.022;5.686;2023-03-01T06:59:40;9.23;;;5.57;;
48534;SDS011;34323;52.022;5.686;2023-03-01T07:06:06;9.75;;;4.72;;
48534;SDS011;34323;52.022;5.686;2023-03-01T07:09:04;7.70;;;4.68;;
48534;SDS011;34323;52.022;5.686;2023-03-01T07:11:49;8.00;;;4.10;;
48534;SDS011;34323;52.022;5.686;2023-03-01T07:14:22;7.63;;;4.07;;
48534;SDS011;34323;52.022;5.686;2023-03-01T07:17:04;8.43;;;5.00;;
48534;SDS011;34323;52.022;5.686;2023-03-01T07:26:38;6.45;;;4.18;;
48534;SDS011;34323;52.022;5.686;2023-03-01T07:30:00;8.10;;;4.32;;
48534;SDS011;34323;52.022;5.686;2023-03-01T07:35:44;7.28;;;4.85;;
48534;SDS011;34323;52.022;5.686;2023-03-01T07:38:49;8.63;;;4.80;;
48534;SDS011;34323;52.022;5.686;2023-03-01T07:45:16;10.57;;;5.88;;
48534;SDS011;34323;52.022;5.686;2023-03-01T07:47:46;10.70;;;6.28;;
48534;SDS011;34323;52.022;5.686;2023-03-01T07:50:26;11.88;;;5.85;;
48534;SDS011;34323;52.022;5.686;2023-03-01T07:57:02;10.85;;;4.22;;
48534;SDS011;34323;52.022;5.686;2023-03-01T08:00:16;7.90;;;4.40;;
48534;SDS011;34323;52.022;5.686;2023-03-01T08:03:10;7.80;;;5.13;;
48534;SDS011;34323;52.022;5.686;2023-03-01T08:09:07;9.18;;;4.88;;
48534;SDS011;34323;52.022;5.686;2023-03-01T08:11:50;9.73;;;4.80;;
48534;SDS011;34323;52.022;5.686;2023-03-01T08:14:58;10.18;;;5.20;;
48534;SDS011;34323;52.022;5.686;2023-03-01T08:17:48;17.13;;;5.47;;
48534;SDS011;34323;52.022;5.686;2023-03-01T08:20:45;9.10;;;5.00;;
48534;SDS011;34323;52.022;5.686;2023-03-01T08:27:19;8.15;;;5.22;;
48534;SDS011;34323;52.022;5.686;2023-03-01T08:30:12;10.38;;;5.72;;
48534;SDS011;34323;52.022;5.686;2023-03-01T08:33:06;9.48;;;5.97;;
48534;SDS011;34323;52.022;5.686;2023-03-01T08:42:03;9.20;;;5.15;;
48534;SDS011;34323;52.022;5.686;2023-03-01T08:44:54;12.23;;;5.78;;
48534;SDS011;34323;52.022;5.686;2023-03-01T08:48:02;11.15;;;5.85;;
48534;SDS011;34323;52.022;5.686;2023-03-01T08:57:32;10.32;;;6.07;;
48534;SDS011;34323;52.022;5.686;2023-03-01T09:00:25;11.25;;;5.40;;
48534;SDS011;34323;52.022;5.686;2023-03-01T09:09:50;7.95;;;4.93;;
48534;SDS011;34323;52.022;5.686;2023-03-01T09:12:33;8.90;;;4.40;;
48534;SDS011;34323;52.022;5.686;2023-03-01T09:15:25;13.70;;;4.88;;
48534;SDS011;34323;52.022;5.686;2023-03-01T09:18:35;7.32;;;4.60;;
48534;SDS011;34323;52.022;5.686;2023-03-01T09:24:32;7.88;;;4.38;;
48534;SDS011;34323;52.022;5.686;2023-03-01T09:27:23;8.48;;;4.88;;
48534;SDS011;34323;52.022;5.686;2023-03-01T09:30:31;9.18;;;3.78;;
48534;SDS011;34323;52.022;5.686;2023-03-01T09:33:46;7.82;;;5.03;;
48534;SDS011;34323;52.022;5.686;2023-03-01T09:43:57;6.50;;;3.38;;
48534;SDS011;34323;52.022;5.686;2023-03-01T09:46:47;6.85;;;3.33;;
48534;SDS011;34323;52.022;5.686;2023-03-01T09:59:43;9.00;;;3.47;;
48534;SDS011;34323;52.022;5.686;2023-03-01T10:06:32;5.43;;;3.05;;
48534;SDS011;34323;52.022;5.686;2023-03-01T10:09:37;9.45;;;3.83;;
48534;SDS011;34323;52.022;5.686;2023-03-01T10:22:35;6.07;;;2.58;;
48534;SDS011;34323;52.022;5.686;2023-03-01T10:25:31;4.93;;;2.97;;
48534;SDS011;34323;52.022;5.686;2023-03-01T10:28:57;4.80;;;2.60;;
48534;SDS011;34323;52.022;5.686;2023-03-01T10:32:22;8.75;;;3.50;;
48534;SDS011;34323;52.022;5.686;2023-03-01T10:35:24;5.38;;;3.08;;
48534;SDS011;34323;52.022;5.686;2023-03-01T10:41:10;8.52;;;3.70;;
48534;SDS011;34323;52.022;5.686;2023-03-01T10:44:09;6.38;;;3.20;;
48534;SDS011;34323;52.022;5.686;2023-03-01T10:47:30;7.93;;;3.53;;
48534;SDS011;34323;52.022;5.686;2023-03-01T10:53:22;4.30;;;2.75;;
48534;SDS011;34323;52.022;5.686;2023-03-01T10:57:00;3.92;;;3.10;;
48534;SDS011;34323;52.022;5.686;2023-03-01T10:59:30;5.07;;;3.00;;
48534;SDS011;34323;52.022;5.686;2023-03-01T11:05:17;6.20;;;3.35;;
48534;SDS011;34323;52.022;5.686;2023-03-01T11:11:37;5.65;;;3.30;;
48534;SDS011;34323;52.022;5.686;2023-03-01T11:14:31;8.05;;;3.63;;
48534;SDS011;34323;52.022;5.686;2023-03-01T11:27:04;6.20;;;3.78;;
48534;SDS011;34323;52.022;5.686;2023-03-01T11:29:38;6.82;;;3.40;;
48534;SDS011;34323;52.022;5.686;2023-03-01T11:32:08;5.35;;;3.20;;
48534;SDS011;34323;52.022;5.686;2023-03-01T11:34:47;4.43;;;3.00;;
48534;SDS011;34323;52.022;5.686;2023-03-01T11:37:36;5.93;;;3.10;;
48534;SDS011;34323;52.022;5.686;2023-03-01T11:40:25;7.30;;;3.33;;
48534;SDS011;34323;52.022;5.686;2023-03-01T11:42:56;5.78;;;2.90;;
48534;SDS011;34323;52.022;5.686;2023-03-01T11:45:26;5.22;;;3.15;;
48534;SDS011;34323;52.022;5.686;2023-03-01T11:50:48;4.97;;;2.83;;
48534;SDS011;34323;52.022;5.686;2023-03-01T11:53:25;4.60;;;3.15;;
48534;SDS011;34323;52.022;5.686;2023-03-01T11:56:26;4.82;;;2.83;;
48534;SDS011;34323;52.022;5.686;2023-03-01T12:04:36;8.10;;;3.22;;
48534;SDS011;34323;52.022;5.686;2023-03-01T12:07:46;5.57;;;3.10;;
48534;SDS011;34323;52.022;5.686;2023-03-01T12:10:33;6.43;;;3.25;;
48534;SDS011;34323;52.022;5.686;2023-03-01T12:16:15;5.05;;;2.53;;
48534;SDS011;34323;52.022;5.686;2023-03-01T12:26:44;4.55;;;2.70;;
48534;SDS011;34323;52.022;5.686;2023-03-01T12:29:26;5.18;;;3.13;;
48534;SDS011;34323;52.022;5.686;2023-03-01T12:32:12;5.22;;;3.25;;
48534;SDS011;34323;52.022;5.686;2023-03-01T12:51:14;6.30;;;3.15;;
48534;SDS011;34323;52.022;5.686;2023-03-01T12:53:43;4.40;;;2.72;;
48534;SDS011;34323;52.022;5.686;2023-03-01T12:56:13;4.85;;;2.88;;
48534;SDS011;34323;52.022;5.686;2023-03-01T12:58:55;5.97;;;3.55;;
48534;SDS011;34323;52.022;5.686;2023-03-01T13:01:41;5.10;;;3.13;;
48534;SDS011;34323;52.022;5.686;2023-03-01T13:10:02;5.88;;;2.60;;
48534;SDS011;34323;52.022;5.686;2023-03-01T13:17:51;6.68;;;3.17;;
48534;SDS011;34323;52.022;5.686;2023-03-01T13:20:19;4.40;;;3.17;;
48534;SDS011;34323;52.022;5.686;2023-03-01T13:28:38;7.07;;;3.60;;
48534;SDS011;34323;52.022;5.686;2023-03-01T13:31:06;4.88;;;3.33;;
48534;SDS011;34323;52.022;5.686;2023-03-01T13:33:40;5.82;;;3.33;;
48534;SDS011;34323;52.022;5.686;2023-03-01T13:36:07;5.45;;;3.75;;
48534;SDS011;34323;52.022;5.686;2023-03-01T13:46:43;4.60;;;2.90;;
48534;SDS011;34323;52.022;5.686;2023-03-01T13:49:11;5.38;;;3.00;;
48534;SDS011;34323;52.022;5.686;2023-03-01T13:51:40;8.20;;;3.97;;
48534;SDS011;34323;52.022;5.686;2023-03-01T13:54:09;4.43;;;3.13;;
48534;SDS011;34323;52.022;5.686;2023-03-01T13:56:37;4.90;;;3.25;;
48534;SDS011;34323;52.022;5.686;2023-03-01T13:59:19;5.35;;;2.83;;
48534;SDS011;34323;52.022;5.686;2023-03-01T14:01:53;7.70;;;3.47;;
48534;SDS011;34323;52.022;5.686;2023-03-01T14:04:22;5.10;;;3.22;;
48534;SDS011;34323;52.022;5.686;2023-03-01T14:07:17;4.72;;;3.10;;
48534;SDS011;34323;52.022;5.686;2023-03-01T14:09:45;5.43;;;3.00;;
48534;SDS011;34323;52.022;5.686;2023-03-01T14:17:46;5.55;;;3.13;;
48534;SDS011;34323;52.022;5.686;2023-03-01T14:22:56;7.15;;;2.60;;
48534;SDS011;34323;52.022;5.686;2023-03-01T14:27:59;4.50;;;3.00;;
48534;SDS011;34323;52.022;5.686;2023-03-01T14:30:32;5.97;;;3.35;;
48534;SDS011;34323;52.022;5.686;2023-03-01T14:33:03;5.72;;;3.63;;
48534;SDS011;34323;52.022;5.686;2023-03-01T14:35:32;5.65;;;3.17;;
48534;SDS011;34323;52.022;5.686;2023-03-01T14:37:59;4.80;;;2.70;;
48534;SDS011;34323;52.022;5.686;2023-03-01T14:40:30;4.95;;;3.15;;
48534;SDS011;34323;52.022;5.686;2023-03-01T14:42:58;6.20;;;3.00;;
48534;SDS011;34323;52.022;5.686;2023-03-01T14:45:29;5.05;;;3.00;;
48534;SDS011;34323;52.022;5.686;2023-03-01T14:47:55;4.72;;;3.30;;
48534;SDS011;34323;52.022;5.686;2023-03-01T14:50:27;4.80;;;3.20;;
48534;SDS011;34323;52.022;5.686;2023-03-01T14:52:58;5.55;;;3.05;;
48534;SDS011;34323;52.022;5.686;2023-03-01T14:55:29;5.90;;;3.30;;
48534;SDS011;34323;52.022;5.686;2023-03-01T15:00:28;7.57;;;3.38;;
48534;SDS011;34323;52.022;5.686;2023-03-01T15:02:55;4.68;;;2.90;;
48534;SDS011;34323;52.022;5.686;2023-03-01T15:05:30;4.95;;;2.92;;
48534;SDS011;34323;52.022;5.686;2023-03-01T15:08:00;5.38;;;2.53;;
48534;SDS011;34323;52.022;5.686;2023-03-01T15:10:28;5.00;;;2.53;;
48534;SDS011;34323;52.022;5.686;2023-03-01T15:13:41;4.95;;;2.40;;
48534;SDS011;34323;52.022;5.686;2023-03-01T15:15:49;5.72;;;3.30;;
48534;SDS011;34323;52.022;5.686;2023-03-01T15:18:19;5.78;;;2.63;;
48534;SDS011;34323;52.022;5.686;2023-03-01T15:20:51;5.85;;;3.38;;
48534;SDS011;34323;52.022;5.686;2023-03-01T15:23:28;4.80;;;3.08;;
48534;SDS011;34323;52.022;5.686;2023-03-01T15:25:55;4.50;;;2.60;;
48534;SDS011;34323;52.022;5.686;2023-03-01T15:28:27;5.55;;;2.78;;
48534;SDS011;34323;52.022;5.686;2023-03-01T15:31:24;4.35;;;2.72;;
48534;SDS011;34323;52.022;5.686;2023-03-01T15:34:06;5.32;;;2.90;;
48534;SDS011;34323;52.022;5.686;2023-03-01T15:36:53;4.65;;;2.60;;
48534;SDS011;34323;52.022;5.686;2023-03-01T15:39:39;5.15;;;2.55;;
48534;SDS011;34323;52.022;5.686;2023-03-01T15:45:07;4.43;;;2.85;;
48534;SDS011;34323;52.022;5.686;2023-03-01T15:47:48;6.95;;;2.72;;
48534;SDS011;34323;52.022;5.686;2023-03-01T15:50:19;6.25;;;2.35;;
48534;SDS011;34323;52.022;5.686;2023-03-01T15:52:47;5.93;;;2.78;;
48534;SDS011;34323;52.022;5.686;2023-03-01T15:55:24;5.65;;;3.05;;
48534;SDS011;34323;52.022;5.686;2023-03-01T15:57:59;5.57;;;3.00;;
48534;SDS011;34323;52.022;5.686;2023-03-01T16:00:30;4.85;;;2.65;;
48534;SDS011;34323;52.022;5.686;2023-03-01T16:02:55;6.35;;;3.20;;
48534;SDS011;34323;52.022;5.686;2023-03-01T16:05:26;6.10;;;2.60;;
48534;SDS011;34323;52.022;5.686;2023-03-01T16:07:53;4.38;;;2.50;;
48534;SDS011;34323;52.022;5.686;2023-03-01T16:10:19;4.40;;;2.63;;
48534;SDS011;34323;52.022;5.686;2023-03-01T16:12:45;4.30;;;2.40;;
48534;SDS011;34323;52.022;5.686;2023-03-01T16:15:17;4.22;;;2.50;;
48534;SDS011;34323;52.022;5.686;2023-03-01T16:17:45;3.95;;;2.40;;
48534;SDS011;34323;52.022;5.686;2023-03-01T16:20:11;4.13;;;2.30;;
48534;SDS011;34323;52.022;5.686;2023-03-01T16:22:40;5.03;;;2.28;;
48534;SDS011;34323;52.022;5.686;2023-03-01T16:25:10;3.35;;;2.05;;
48534;SDS011;34323;52.022;5.686;2023-03-01T16:27:37;4.03;;;2.10;;
48534;SDS011;34323;52.022;5.686;2023-03-01T16:30:03;6.07;;;2.63;;
48534;SDS011;34323;52.022;5.686;2023-03-01T16:32:31;4.28;;;2.42;;
48534;SDS011;34323;52.022;5.686;2023-03-01T16:34:56;5.03;;;2.42;;
48534;SDS011;34323;52.022;5.686;2023-03-01T16:37:22;4.57;;;2.40;;
48534;SDS011;34323;52.022;5.686;2023-03-01T16:39:47;4.25;;;2.72;;
48534;SDS011;34323;52.022;5.686;2023-03-01T16:42:16;9.27;;;2.60;;
48534;SDS011;34323;52.022;5.686;2023-03-01T16:44:42;7.20;;;2.50;;
48534;SDS011;34323;52.022;5.686;2023-03-01T16:47:08;8.07;;;3.22;;
48534;SDS011;34323;52.022;5.686;2023-03-01T16:49:33;5.13;;;2.75;;
48534;SDS011;34323;52.022;5.686;2023-03-01T16:51:59;4.70;;;2.92;;
48534;SDS011;34323;52.022;5.686;2023-03-01T16:54:24;8.40;;;2.42;;
48534;SDS011;34323;52.022;5.686;2023-03-01T16:56:50;5.45;;;2.65;;
48534;SDS011;34323;52.022;5.686;2023-03-01T16:59:16;5.72;;;3.00;;
48534;SDS011;34323;52.022;5.686;2023-03-01T17:01:43;7.40;;;3.03;;
48534;SDS011;34323;52.022;5.686;2023-03-01T17:04:10;4.75;;;2.55;;
48534;SDS011;34323;52.022;5.686;2023-03-01T17:06:37;6.07;;;2.97;;
48534;SDS011;34323;52.022;5.686;2023-03-01T17:09:02;5.65;;;3.45;;
48534;SDS011;34323;52.022;5.686;2023-03-01T17:11:28;9.52;;;2.25;;
48534;SDS011;34323;52.022;5.686;2023-03-01T17:13:53;5.03;;;2.70;;
48534;SDS011;34323;52.022;5.686;2023-03-01T17:16:19;4.28;;;2.45;;
48534;SDS011;34323;52.022;5.686;2023-03-01T17:18:45;5.53;;;2.95;;
48534;SDS011;34323;52.022;5.686;2023-03-01T17:21:12;4.78;;;2.55;;
48534;SDS011;34323;52.022;5.686;2023-03-01T17:23:40;5.75;;;3.05;;
48534;SDS011;34323;52.022;5.686;2023-03-01T17:26:06;7.95;;;3.13;;
48534;SDS011;34323;52.022;5.686;2023-03-01T17:28:33;9.18;;;4.20;;
48534;SDS011;34323;52.022;5.686;2023-03-01T17:31:00;7.18;;;2.72;;
48534;SDS011;34323;52.022;5.686;2023-03-01T17:33:27;5.05;;;2.70;;
48534;SDS011;34323;52.022;5.686;2023-03-01T17:35:54;6.60;;;2.67;;
48534;SDS011;34323;52.022;5.686;2023-03-01T17:38:20;6.88;;;2.75;;
48534;SDS011;34323;52.022;5.686;2023-03-01T17:40:46;5.75;;;3.60;;
48534;SDS011;34323;52.022;5.686;2023-03-01T17:43:12;5.50;;;2.80;;
48534;SDS011;34323;52.022;5.686;2023-03-01T17:45:38;5.13;;;2.75;;
48534;SDS011;34323;52.022;5.686;2023-03-01T17:48:04;6.90;;;3.17;;
48534;SDS011;34323;52.022;5.686;2023-03-01T17:50:31;8.68;;;3.00;;
48534;SDS011;34323;52.022;5.686;2023-03-01T17:52:57;4.60;;;2.65;;
48534;SDS011;34323;52.022;5.686;2023-03-01T17:55:23;6.18;;;2.78;;
48534;SDS011;34323;52.022;5.686;2023-03-01T17:57:48;7.25;;;3.90;;
48534;SDS011;34323;52.022;5.686;2023-03-01T18:00:14;4.53;;;2.72;;
48534;SDS011;34323;52.022;5.686;2023-03-01T18:02:41;5.68;;;2.60;;
48534;SDS011;34323;52.022;5.686;2023-03-01T18:05:07;6.88;;;3.13;;
48534;SDS011;34323;52.022;5.686;2023-03-01T18:07:33;4.30;;;2.60;;
48534;SDS011;34323;52.022;5.686;2023-03-01T18:09:59;5.80;;;3.08;;
48534;SDS011;34323;52.022;5.686;2023-03-01T18:12:24;5.13;;;3.10;;
48534;SDS011;34323;52.022;5.686;2023-03-01T18:14:50;5.13;;;3.33;;
48534;SDS011;34323;52.022;5.686;2023-03-01T18:17:18;6.32;;;2.97;;
48534;SDS011;34323;52.022;5.686;2023-03-01T18:19:44;8.30;;;3.78;;
48534;SDS011;34323;52.022;5.686;2023-03-01T18:22:10;7.85;;;3.13;;
48534;SDS011;34323;52.022;5.686;2023-03-01T18:24:37;6.00;;;3.08;;
48534;SDS011;34323;52.022;5.686;2023-03-01T18:27:02;4.18;;;2.80;;
48534;SDS011;34323;52.022;5.686;2023-03-01T18:29:28;5.85;;;2.85;;
48534;SDS011;34323;52.022;5.686;2023-03-01T18:31:54;6.53;;;3.53;;
48534;SDS011;34323;52.022;5.686;2023-03-01T18:34:19;8.40;;;3.28;;
48534;SDS011;34323;52.022;5.686;2023-03-01T18:36:45;10.82;;;5.18;;
48534;SDS011;34323;52.022;5.686;2023-03-01T18:39:11;14.68;;;5.20;;
48534;SDS011;34323;52.022;5.686;2023-03-01T18:41:38;14.85;;;6.40;;
48534;SDS011;34323;52.022;5.686;2023-03-01T18:44:04;15.77;;;6.15;;
48534;SDS011;34323;52.022;5.686;2023-03-01T18:46:31;12.43;;;5.75;;
48534;SDS011;34323;52.022;5.686;2023-03-01T18:48:57;10.43;;;5.40;;
48534;SDS011;34323;52.022;5.686;2023-03-01T18:51:24;11.20;;;5.30;;
48534;SDS011;34323;52.022;5.686;2023-03-01T18:53:51;11.07;;;5.32;;
48534;SDS011;34323;52.022;5.686;2023-03-01T18:56:17;7.93;;;3.83;;
48534;SDS011;34323;52.022;5.686;2023-03-01T18:58:43;7.35;;;3.65;;
48534;SDS011;34323;52.022;5.686;2023-03-01T19:01:27;6.07;;;3.38;;
48534;SDS011;34323;52.022;5.686;2023-03-01T19:03:54;10.15;;;3.80;;
48534;SDS011;34323;52.022;5.686;2023-03-01T19:06:21;8.68;;;3.92;;
48534;SDS011;34323;52.022;5.686;2023-03-01T19:08:47;9.00;;;3.97;;
48534;SDS011;34323;52.022;5.686;2023-03-01T19:11:14;7.38;;;3.88;;
48534;SDS011;34323;52.022;5.686;2023-03-01T19:13:41;6.18;;;3.67;;
48534;SDS011;34323;52.022;5.686;2023-03-01T19:18:42;9.55;;;3.55;;
48534;SDS011;34323;52.022;5.686;2023-03-01T19:21:14;6.00;;;3.42;;
48534;SDS011;34323;52.022;5.686;2023-03-01T19:23:41;7.80;;;3.90;;
48534;SDS011;34323;52.022;5.686;2023-03-01T19:26:08;8.57;;;3.45;;
48534;SDS011;34323;52.022;5.686;2023-03-01T19:28:36;6.00;;;3.55;;
48534;SDS011;34323;52.022;5.686;2023-03-01T19:31:04;8.98;;;3.60;;
48534;SDS011;34323;52.022;5.686;2023-03-01T19:33:32;7.18;;;3.17;;
48534;SDS011;34323;52.022;5.686;2023-03-01T19:35:59;6.82;;;3.30;;
48534;SDS011;34323;52.022;5.686;2023-03-01T19:38:26;6.80;;;3.45;;
48534;SDS011;34323;52.022;5.686;2023-03-01T19:40:52;7.30;;;3.70;;
48534;SDS011;34323;52.022;5.686;2023-03-01T19:43:18;9.20;;;3.83;;
48534;SDS011;34323;52.022;5.686;2023-03-01T19:45:44;5.82;;;3.30;;
48534;SDS011;34323;52.022;5.686;2023-03-01T19:48:14;5.38;;;3.22;;
48534;SDS011;34323;52.022;5.686;2023-03-01T19:50:41;7.38;;;3.33;;
48534;SDS011;34323;52.022;5.686;2023-03-01T19:53:07;7.90;;;3.80;;
48534;SDS011;34323;52.022;5.686;2023-03-01T19:55:34;5.97;;;3.53;;
48534;SDS011;34323;52.022;5.686;2023-03-01T19:58:01;5.82;;;3.50;;
48534;SDS011;34323;52.022;5.686;2023-03-01T20:00:26;5.75;;;3.55;;
48534;SDS011;34323;52.022;5.686;2023-03-01T20:02:52;7.30;;;3.70;;
48534;SDS011;34323;52.022;5.686;2023-03-01T20:05:18;7.00;;;3.28;;
48534;SDS011;34323;52.022;5.686;2023-03-01T20:07:43;10.68;;;4.07;;
48534;SDS011;34323;52.022;5.686;2023-03-01T20:10:09;8.13;;;3.72;;
48534;SDS011;34323;52.022;5.686;2023-03-01T20:12:35;8.40;;;3.58;;